sensor_id;sensor_type;location;lat;lon;timestamp;P1;durP1;ratioP1;P2;durP2;ratioP2
22687;SDS011;11511;51.514;7.080;2023-06-22T01:04:08;7.97;;;6.95;;
22687;SDS011;11511;51.514;7.080;2023-06-22T01:06:41;10.48;;;7.07;;
22687;SDS011;11511;51.514;7.080;2023-06-22T12:12:27;33.05;;;26.52;;
22687;SDS011;11511;51.514;7.080;2023-06-22T12:14:56;38.67;;;29.02;;
22687;SDS011;11511;51.514;7.080;2023-06-22T12:17:34;35.42;;;28.10;;
22687;SDS011;11511;51.514;7.080;2023-06-22T12:20:06;37.28;;;28.85;;
22687;SDS011;11511;51.514;7.080;2023-06-22T12:22:40;40.65;;;32.03;;
22687;SDS011;11511;51.514;7.080;2023-06-22T12:25:10;42.58;;;31.83;;
22687;SDS011;11511;51.514;7.080;2023-06-22T12:27:39;38.17;;;31.35;;
22687;SDS011;11511;51.514;7.080;2023-06-22T12:30:08;41.20;;;31.52;;
22687;SDS011;11511;51.514;7.080;2023-06-22T12:32:36;38.83;;;31.30;;
22687;SDS011;11511;51.514;7.080;2023-06-22T12:35:15;40.58;;;33.47;;
22687;SDS011;11511;51.514;7.080;2023-06-22T12:37:47;42.45;;;34.90;;
22687;SDS011;11511;51.514;7.080;2023-06-22T12:40:13;43.25;;;34.85;;
22687;SDS011;11511;51.514;7.080;2023-06-22T12:42:40;39.53;;;35.20;;
22687;SDS011;11511;51.514;7.080;2023-06-22T12:45:11;42.80;;;34.83;;
22687;SDS011;11511;51.514;7.080;2023-06-22T12:47:38;41.63;;;32.50;;
22687;SDS011;11511;51.514;7.080;2023-06-22T12:50:04;40.60;;;33.72;;
22687;SDS011;11511;51.514;7.080;2023-06-22T12:52:36;37.42;;;31.90;;
22687;SDS011;11511;51.514;7.080;2023-06-22T12:55:05;42.13;;;33.97;;
22687;SDS011;11511;51.514;7.080;2023-06-22T12:57:33;41.88;;;35.50;;
22687;SDS011;11511;51.514;7.080;2023-06-22T13:00:00;40.22;;;34.00;;
22687;SDS011;11511;51.514;7.080;2023-06-22T13:02:26;40.20;;;34.90;;
22687;SDS011;11511;51.514;7.080;2023-06-22T13:04:55;42.78;;;34.40;;
22687;SDS011;11511;51.514;7.080;2023-06-22T13:07:42;44.58;;;35.83;;
22687;SDS011;11511;51.514;7.080;2023-06-22T13:10:13;44.30;;;36.38;;
22687;SDS011;11511;51.514;7.080;2023-06-22T13:12:39;45.20;;;38.05;;
22687;SDS011;11511;51.514;7.080;2023-06-22T13:15:06;48.97;;;37.33;;
22687;SDS011;11511;51.514;7.080;2023-06-22T13:17:32;44.00;;;33.97;;
22687;SDS011;11511;51.514;7.080;2023-06-22T13:19:58;41.88;;;34.55;;
22687;SDS011;11511;51.514;7.080;2023-06-22T13:22:28;40.83;;;34.53;;
22687;SDS011;11511;51.514;7.080;2023-06-22T13:27:39;35.80;;;31.90;;
22687;SDS011;11511;51.514;7.080;2023-06-22T13:30:09;36.35;;;28.90;;
22687;SDS011;11511;51.514;7.080;2023-06-22T13:32:39;42.63;;;32.50;;
22687;SDS011;11511;51.514;7.080;2023-06-22T13:35:10;33.95;;;30.17;;
22687;SDS011;11511;51.514;7.080;2023-06-22T13:37:39;36.50;;;30.58;;
22687;SDS011;11511;51.514;7.080;2023-06-22T13:40:06;34.10;;;30.38;;
22687;SDS011;11511;51.514;7.080;2023-06-22T13:42:35;34.15;;;30.25;;
22687;SDS011;11511;51.514;7.080;2023-06-22T13:45:02;32.55;;;28.73;;
22687;SDS011;11511;51.514;7.080;2023-06-22T13:47:29;39.90;;;31.90;;
22687;SDS011;11511;51.514;7.080;2023-06-22T13:49:55;39.55;;;32.80;;
22687;SDS011;11511;51.514;7.080;2023-06-22T13:52:23;41.10;;;33.83;;
22687;SDS011;11511;51.514;7.080;2023-06-22T13:54:52;41.78;;;32.40;;
22687;SDS011;11511;51.514;7.080;2023-06-22T13:57:19;40.85;;;34.20;;
22687;SDS011;11511;51.514;7.080;2023-06-22T13:59:46;41.17;;;34.45;;
22687;SDS011;11511;51.514;7.080;2023-06-22T14:02:15;43.00;;;35.67;;
22687;SDS011;11511;51.514;7.080;2023-06-22T14:04:48;38.63;;;32.78;;
22687;SDS011;11511;51.514;7.080;2023-06-22T14:07:21;36.20;;;31.85;;
22687;SDS011;11511;51.514;7.080;2023-06-22T14:09:53;36.55;;;32.55;;
22687;SDS011;11511;51.514;7.080;2023-06-22T14:12:26;37.53;;;31.25;;
22687;SDS011;11511;51.514;7.080;2023-06-22T14:14:57;34.70;;;30.40;;
22687;SDS011;11511;51.514;7.080;2023-06-22T14:17:24;39.60;;;32.28;;
22687;SDS011;11511;51.514;7.080;2023-06-22T14:19:56;36.40;;;30.83;;
22687;SDS011;11511;51.514;7.080;2023-06-22T14:22:24;34.05;;;28.90;;
22687;SDS011;11511;51.514;7.080;2023-06-22T14:24:54;34.13;;;27.67;;
22687;SDS011;11511;51.514;7.080;2023-06-22T14:27:24;28.80;;;25.70;;
22687;SDS011;11511;51.514;7.080;2023-06-22T14:29:52;28.50;;;25.48;;
22687;SDS011;11511;51.514;7.080;2023-06-22T14:32:19;28.45;;;24.50;;
22687;SDS011;11511;51.514;7.080;2023-06-22T14:34:46;26.88;;;23.83;;
22687;SDS011;11511;51.514;7.080;2023-06-22T14:37:15;27.85;;;24.92;;
22687;SDS011;11511;51.514;7.080;2023-06-22T14:39:43;24.65;;;20.75;;
22687;SDS011;11511;51.514;7.080;2023-06-22T14:42:19;25.30;;;20.42;;
22687;SDS011;11511;51.514;7.080;2023-06-22T14:44:47;23.67;;;19.85;;
22687;SDS011;11511;51.514;7.080;2023-06-22T14:47:14;22.23;;;19.55;;
22687;SDS011;11511;51.514;7.080;2023-06-22T14:49:43;21.65;;;19.45;;
22687;SDS011;11511;51.514;7.080;2023-06-22T14:52:10;21.17;;;18.90;;
22687;SDS011;11511;51.514;7.080;2023-06-22T14:54:37;22.85;;;20.33;;
22687;SDS011;11511;51.514;7.080;2023-06-22T14:57:12;24.48;;;19.80;;
22687;SDS011;11511;51.514;7.080;2023-06-22T14:59:38;24.88;;;21.90;;
22687;SDS011;11511;51.514;7.080;2023-06-22T15:02:07;26.33;;;21.75;;
22687;SDS011;11511;51.514;7.080;2023-06-22T15:04:34;27.00;;;24.02;;
22687;SDS011;11511;51.514;7.080;2023-06-22T15:07:02;29.83;;;26.75;;
22687;SDS011;11511;51.514;7.080;2023-06-22T15:09:29;30.08;;;26.58;;
22687;SDS011;11511;51.514;7.080;2023-06-22T15:12:00;36.78;;;29.85;;
22687;SDS011;11511;51.514;7.080;2023-06-22T15:14:33;38.70;;;32.38;;
22687;SDS011;11511;51.514;7.080;2023-06-22T15:17:01;44.42;;;34.47;;
22687;SDS011;11511;51.514;7.080;2023-06-22T15:19:28;39.25;;;33.53;;
22687;SDS011;11511;51.514;7.080;2023-06-22T15:21:55;38.60;;;33.50;;
22687;SDS011;11511;51.514;7.080;2023-06-22T15:24:22;42.05;;;34.63;;
22687;SDS011;11511;51.514;7.080;2023-06-22T15:26:50;39.92;;;32.08;;
22687;SDS011;11511;51.514;7.080;2023-06-22T15:29:16;34.78;;;30.95;;
22687;SDS011;11511;51.514;7.080;2023-06-22T15:31:43;33.20;;;28.40;;
22687;SDS011;11511;51.514;7.080;2023-06-22T15:34:10;33.85;;;30.08;;
22687;SDS011;11511;51.514;7.080;2023-06-22T15:36:40;30.00;;;26.50;;
22687;SDS011;11511;51.514;7.080;2023-06-22T15:39:07;30.55;;;27.35;;
22687;SDS011;11511;51.514;7.080;2023-06-22T15:41:35;31.00;;;26.15;;
22687;SDS011;11511;51.514;7.080;2023-06-22T15:44:08;28.92;;;25.83;;
22687;SDS011;11511;51.514;7.080;2023-06-22T15:46:36;30.25;;;25.63;;
22687;SDS011;11511;51.514;7.080;2023-06-22T15:49:07;28.63;;;24.45;;
22687;SDS011;11511;51.514;7.080;2023-06-22T15:51:34;29.35;;;24.27;;
22687;SDS011;11511;51.514;7.080;2023-06-22T15:54:04;26.95;;;23.75;;
22687;SDS011;11511;51.514;7.080;2023-06-22T15:56:34;26.17;;;22.90;;
22687;SDS011;11511;51.514;7.080;2023-06-22T15:59:00;35.30;;;24.27;;
22687;SDS011;11511;51.514;7.080;2023-06-22T16:01:29;39.22;;;28.52;;
22687;SDS011;11511;51.514;7.080;2023-06-22T16:03:56;30.92;;;22.48;;
22687;SDS011;11511;51.514;7.080;2023-06-22T16:06:27;32.75;;;23.63;;
22687;SDS011;11511;51.514;7.080;2023-06-22T16:08:58;28.70;;;21.20;;
22687;SDS011;11511;51.514;7.080;2023-06-22T16:11:26;33.72;;;22.25;;
22687;SDS011;11511;51.514;7.080;2023-06-22T16:13:56;36.80;;;23.23;;
22687;SDS011;11511;51.514;7.080;2023-06-22T16:16:22;31.42;;;23.80;;
22687;SDS011;11511;51.514;7.080;2023-06-22T16:18:48;34.42;;;25.67;;
22687;SDS011;11511;51.514;7.080;2023-06-22T16:21:16;30.55;;;23.88;;
22687;SDS011;11511;51.514;7.080;2023-06-22T16:23:48;25.50;;;20.02;;
22687;SDS011;11511;51.514;7.080;2023-06-22T16:26:18;27.05;;;20.02;;
22687;SDS011;11511;51.514;7.080;2023-06-22T16:28:47;24.15;;;18.63;;
22687;SDS011;11511;51.514;7.080;2023-06-22T16:31:15;23.75;;;19.02;;
22687;SDS011;11511;51.514;7.080;2023-06-22T16:33:45;22.83;;;16.63;;
22687;SDS011;11511;51.514;7.080;2023-06-22T16:36:15;30.02;;;21.33;;
22687;SDS011;11511;51.514;7.080;2023-06-22T16:38:42;26.65;;;22.10;;
22687;SDS011;11511;51.514;7.080;2023-06-22T16:41:08;26.40;;;20.80;;
22687;SDS011;11511;51.514;7.080;2023-06-22T16:43:40;28.25;;;21.33;;
22687;SDS011;11511;51.514;7.080;2023-06-22T16:46:08;26.13;;;19.63;;
22687;SDS011;11511;51.514;7.080;2023-06-22T16:48:38;25.05;;;19.83;;
22687;SDS011;11511;51.514;7.080;2023-06-22T16:51:07;25.13;;;19.73;;
22687;SDS011;11511;51.514;7.080;2023-06-22T16:53:33;24.05;;;19.38;;
22687;SDS011;11511;51.514;7.080;2023-06-22T16:56:01;25.95;;;20.02;;
22687;SDS011;11511;51.514;7.080;2023-06-22T16:58:29;25.52;;;20.08;;
22687;SDS011;11511;51.514;7.080;2023-06-22T17:00:58;26.00;;;18.42;;
22687;SDS011;11511;51.514;7.080;2023-06-22T17:03:28;29.27;;;20.83;;
22687;SDS011;11511;51.514;7.080;2023-06-22T17:06:05;25.67;;;19.60;;
22687;SDS011;11511;51.514;7.080;2023-06-22T17:08:34;27.25;;;19.98;;
22687;SDS011;11511;51.514;7.080;2023-06-22T17:11:03;26.45;;;20.27;;
22687;SDS011;11511;51.514;7.080;2023-06-22T17:13:37;28.58;;;20.48;;
22687;SDS011;11511;51.514;7.080;2023-06-22T17:16:05;27.80;;;22.30;;
22687;SDS011;11511;51.514;7.080;2023-06-22T17:18:41;32.35;;;22.27;;
22687;SDS011;11511;51.514;7.080;2023-06-22T17:21:10;26.25;;;21.40;;
22687;SDS011;11511;51.514;7.080;2023-06-22T17:23:38;28.48;;;20.75;;
22687;SDS011;11511;51.514;7.080;2023-06-22T17:26:11;28.63;;;22.58;;
22687;SDS011;11511;51.514;7.080;2023-06-22T17:28:55;26.25;;;21.17;;
22687;SDS011;11511;51.514;7.080;2023-06-22T17:31:36;29.77;;;22.95;;
22687;SDS011;11511;51.514;7.080;2023-06-22T17:34:12;31.50;;;24.52;;
22687;SDS011;11511;51.514;7.080;2023-06-22T17:36:48;31.65;;;24.88;;
22687;SDS011;11511;51.514;7.080;2023-06-22T17:39:17;33.03;;;24.15;;
22687;SDS011;11511;51.514;7.080;2023-06-22T17:41:48;31.40;;;23.92;;
22687;SDS011;11511;51.514;7.080;2023-06-22T17:44:19;33.53;;;25.30;;
22687;SDS011;11511;51.514;7.080;2023-06-22T17:46:56;34.30;;;26.48;;
22687;SDS011;11511;51.514;7.080;2023-06-22T17:49:30;36.00;;;26.55;;
22687;SDS011;11511;51.514;7.080;2023-06-22T17:51:57;38.60;;;27.85;;
22687;SDS011;11511;51.514;7.080;2023-06-22T17:54:29;36.15;;;26.13;;
22687;SDS011;11511;51.514;7.080;2023-06-22T17:56:56;36.55;;;27.55;;
22687;SDS011;11511;51.514;7.080;2023-06-22T17:59:23;40.33;;;29.23;;
22687;SDS011;11511;51.514;7.080;2023-06-22T18:01:54;43.65;;;30.95;;
22687;SDS011;11511;51.514;7.080;2023-06-22T18:04:19;43.58;;;31.55;;
22687;SDS011;11511;51.514;7.080;2023-06-22T18:06:46;49.10;;;33.95;;
22687;SDS011;11511;51.514;7.080;2023-06-22T18:09:13;46.65;;;32.10;;
22687;SDS011;11511;51.514;7.080;2023-06-22T18:14:16;42.57;;;30.50;;
22687;SDS011;11511;51.514;7.080;2023-06-22T18:16:44;39.45;;;29.70;;
22687;SDS011;11511;51.514;7.080;2023-06-22T18:19:14;42.35;;;29.42;;
22687;SDS011;11511;51.514;7.080;2023-06-22T18:21:41;40.83;;;29.08;;
22687;SDS011;11511;51.514;7.080;2023-06-22T18:24:17;40.65;;;28.45;;
22687;SDS011;11511;51.514;7.080;2023-06-22T18:26:45;41.80;;;27.65;;
22687;SDS011;11511;51.514;7.080;2023-06-22T18:29:12;36.30;;;25.25;;
22687;SDS011;11511;51.514;7.080;2023-06-22T18:31:39;32.45;;;25.70;;
22687;SDS011;11511;51.514;7.080;2023-06-22T18:34:06;41.28;;;28.63;;
22687;SDS011;11511;51.514;7.080;2023-06-22T18:36:54;36.53;;;26.88;;
22687;SDS011;11511;51.514;7.080;2023-06-22T18:39:23;36.75;;;27.85;;
22687;SDS011;11511;51.514;7.080;2023-06-22T18:41:51;36.63;;;28.13;;
22687;SDS011;11511;51.514;7.080;2023-06-22T18:44:32;38.88;;;27.40;;
22687;SDS011;11511;51.514;7.080;2023-06-22T18:47:04;38.80;;;28.15;;
22687;SDS011;11511;51.514;7.080;2023-06-22T18:49:32;38.03;;;29.00;;
22687;SDS011;11511;51.514;7.080;2023-06-22T18:52:04;41.78;;;29.58;;
22687;SDS011;11511;51.514;7.080;2023-06-22T18:54:46;41.35;;;30.75;;
22687;SDS011;11511;51.514;7.080;2023-06-22T18:57:23;47.92;;;33.70;;
22687;SDS011;11511;51.514;7.080;2023-06-22T19:00:03;45.20;;;31.65;;
22687;SDS011;11511;51.514;7.080;2023-06-22T19:02:41;45.75;;;31.40;;
22687;SDS011;11511;51.514;7.080;2023-06-22T19:13:26;47.30;;;34.85;;
22687;SDS011;11511;51.514;7.080;2023-06-22T19:16:16;53.28;;;38.40;;
22687;SDS011;11511;51.514;7.080;2023-06-22T19:18:41;47.92;;;35.78;;
22687;SDS011;11511;51.514;7.080;2023-06-22T19:21:11;60.05;;;39.22;;
22687;SDS011;11511;51.514;7.080;2023-06-22T19:23:47;51.97;;;37.05;;
22687;SDS011;11511;51.514;7.080;2023-06-22T19:26:13;56.38;;;39.03;;
22687;SDS011;11511;51.514;7.080;2023-06-22T19:28:47;52.60;;;37.90;;
22687;SDS011;11511;51.514;7.080;2023-06-22T19:31:16;58.58;;;39.80;;
22687;SDS011;11511;51.514;7.080;2023-06-22T19:33:43;56.85;;;40.15;;
22687;SDS011;11511;51.514;7.080;2023-06-22T19:36:09;60.58;;;40.97;;
22687;SDS011;11511;51.514;7.080;2023-06-22T19:38:37;60.97;;;41.92;;
22687;SDS011;11511;51.514;7.080;2023-06-22T19:41:08;57.22;;;41.30;;
22687;SDS011;11511;51.514;7.080;2023-06-22T19:43:38;61.33;;;43.38;;
22687;SDS011;11511;51.514;7.080;2023-06-22T19:46:05;65.07;;;43.35;;
22687;SDS011;11511;51.514;7.080;2023-06-22T19:48:37;51.38;;;39.28;;
22687;SDS011;11511;51.514;7.080;2023-06-22T19:51:09;51.92;;;37.38;;
22687;SDS011;11511;51.514;7.080;2023-06-22T19:53:42;44.35;;;31.50;;
22687;SDS011;11511;51.514;7.080;2023-06-22T19:56:09;40.28;;;28.02;;
22687;SDS011;11511;51.514;7.080;2023-06-22T19:58:36;18.00;;;13.52;;
22687;SDS011;11511;51.514;7.080;2023-06-22T20:01:03;15.52;;;11.05;;
22687;SDS011;11511;51.514;7.080;2023-06-22T20:03:32;13.25;;;9.10;;
22687;SDS011;11511;51.514;7.080;2023-06-22T20:06:13;10.10;;;7.05;;
22687;SDS011;11511;51.514;7.080;2023-06-22T20:08:50;9.10;;;5.45;;
22687;SDS011;11511;51.514;7.080;2023-06-22T20:11:30;11.38;;;6.90;;
22687;SDS011;11511;51.514;7.080;2023-06-22T20:13:59;10.10;;;8.07;;
22687;SDS011;11511;51.514;7.080;2023-06-22T20:16:27;10.90;;;9.00;;
22687;SDS011;11511;51.514;7.080;2023-06-22T20:19:08;13.13;;;11.07;;
22687;SDS011;11511;51.514;7.080;2023-06-22T20:21:36;17.95;;;13.50;;
22687;SDS011;11511;51.514;7.080;2023-06-22T20:24:05;21.38;;;15.15;;
22687;SDS011;11511;51.514;7.080;2023-06-22T20:26:43;22.80;;;16.38;;
22687;SDS011;11511;51.514;7.080;2023-06-22T20:34:35;22.02;;;14.68;;
22687;SDS011;11511;51.514;7.080;2023-06-22T20:37:07;11.25;;;9.13;;
22687;SDS011;11511;51.514;7.080;2023-06-22T20:39:34;10.95;;;8.77;;
22687;SDS011;11511;51.514;7.080;2023-06-22T20:42:01;12.88;;;8.93;;
22687;SDS011;11511;51.514;7.080;2023-06-22T20:44:29;11.95;;;9.25;;
22687;SDS011;11511;51.514;7.080;2023-06-22T20:47:02;9.63;;;7.78;;
22687;SDS011;11511;51.514;7.080;2023-06-22T20:49:30;9.82;;;8.00;;
22687;SDS011;11511;51.514;7.080;2023-06-22T20:51:56;9.68;;;8.20;;
22687;SDS011;11511;51.514;7.080;2023-06-22T20:54:23;9.63;;;6.93;;
22687;SDS011;11511;51.514;7.080;2023-06-22T20:56:49;9.00;;;6.47;;
22687;SDS011;11511;51.514;7.080;2023-06-22T20:59:17;9.48;;;6.40;;
22687;SDS011;11511;51.514;7.080;2023-06-22T21:01:43;11.48;;;6.40;;
22687;SDS011;11511;51.514;7.080;2023-06-22T21:04:11;14.20;;;7.97;;
22687;SDS011;11511;51.514;7.080;2023-06-22T21:06:39;11.38;;;7.82;;
22687;SDS011;11511;51.514;7.080;2023-06-22T21:09:05;10.57;;;7.53;;
22687;SDS011;11511;51.514;7.080;2023-06-22T21:11:31;11.38;;;7.82;;
22687;SDS011;11511;51.514;7.080;2023-06-22T21:13:58;9.88;;;8.05;;
22687;SDS011;11511;51.514;7.080;2023-06-22T21:16:24;9.77;;;8.02;;
22687;SDS011;11511;51.514;7.080;2023-06-22T21:18:52;9.82;;;7.60;;
22687;SDS011;11511;51.514;7.080;2023-06-22T21:21:19;12.40;;;8.45;;
22687;SDS011;11511;51.514;7.080;2023-06-22T21:23:46;12.88;;;8.90;;
22687;SDS011;11511;51.514;7.080;2023-06-22T21:26:12;12.60;;;9.32;;
22687;SDS011;11511;51.514;7.080;2023-06-22T21:28:39;15.75;;;10.30;;
22687;SDS011;11511;51.514;7.080;2023-06-22T21:31:17;15.88;;;10.02;;
22687;SDS011;11511;51.514;7.080;2023-06-22T21:33:45;16.10;;;10.20;;
22687;SDS011;11511;51.514;7.080;2023-06-22T21:36:16;15.93;;;10.93;;
22687;SDS011;11511;51.514;7.080;2023-06-22T21:38:43;16.65;;;11.55;;
22687;SDS011;11511;51.514;7.080;2023-06-22T21:41:10;14.35;;;10.90;;
22687;SDS011;11511;51.514;7.080;2023-06-22T21:43:38;14.98;;;11.23;;
22687;SDS011;11511;51.514;7.080;2023-06-22T21:46:05;15.65;;;11.52;;
22687;SDS011;11511;51.514;7.080;2023-06-22T21:48:31;21.13;;;15.02;;
22687;SDS011;11511;51.514;7.080;2023-06-22T21:50:58;18.48;;;14.38;;
22687;SDS011;11511;51.514;7.080;2023-06-22T21:53:26;17.50;;;12.68;;
22687;SDS011;11511;51.514;7.080;2023-06-22T21:55:52;16.95;;;12.38;;
22687;SDS011;11511;51.514;7.080;2023-06-22T21:58:23;17.30;;;11.98;;
22687;SDS011;11511;51.514;7.080;2023-06-22T22:00:56;14.75;;;11.30;;
22687;SDS011;11511;51.514;7.080;2023-06-22T22:03:23;15.85;;;12.00;;
22687;SDS011;11511;51.514;7.080;2023-06-22T22:05:53;14.23;;;11.70;;
22687;SDS011;11511;51.514;7.080;2023-06-22T22:08:19;13.70;;;11.65;;
22687;SDS011;11511;51.514;7.080;2023-06-22T22:10:45;15.13;;;12.68;;
22687;SDS011;11511;51.514;7.080;2023-06-22T22:13:12;17.98;;;13.77;;
22687;SDS011;11511;51.514;7.080;2023-06-22T22:15:39;18.88;;;14.65;;
22687;SDS011;11511;51.514;7.080;2023-06-22T22:18:09;15.52;;;13.40;;
22687;SDS011;11511;51.514;7.080;2023-06-22T22:20:36;15.88;;;13.43;;
22687;SDS011;11511;51.514;7.080;2023-06-22T22:23:06;16.40;;;13.93;;
22687;SDS011;11511;51.514;7.080;2023-06-22T22:25:32;19.48;;;13.52;;
22687;SDS011;11511;51.514;7.080;2023-06-22T22:27:59;15.23;;;13.57;;
22687;SDS011;11511;51.514;7.080;2023-06-22T22:30:26;18.45;;;14.25;;
22687;SDS011;11511;51.514;7.080;2023-06-22T22:32:56;15.57;;;13.85;;
22687;SDS011;11511;51.514;7.080;2023-06-22T22:35:24;21.48;;;14.95;;
22687;SDS011;11511;51.514;7.080;2023-06-22T22:37:51;20.85;;;16.52;;
22687;SDS011;11511;51.514;7.080;2023-06-22T22:40:27;19.45;;;15.55;;
22687;SDS011;11511;51.514;7.080;2023-06-22T22:42:54;24.77;;;18.30;;
22687;SDS011;11511;51.514;7.080;2023-06-22T22:45:24;25.65;;;18.48;;
22687;SDS011;11511;51.514;7.080;2023-06-22T22:47:51;24.45;;;17.50;;
22687;SDS011;11511;51.514;7.080;2023-06-22T22:50:17;22.35;;;16.65;;
22687;SDS011;11511;51.514;7.080;2023-06-22T22:52:44;22.23;;;16.85;;
22687;SDS011;11511;51.514;7.080;2023-06-22T22:55:10;23.33;;;17.00;;
22687;SDS011;11511;51.514;7.080;2023-06-22T22:57:39;21.60;;;17.60;;
22687;SDS011;11511;51.514;7.080;2023-06-22T23:00:05;24.38;;;18.30;;
22687;SDS011;11511;51.514;7.080;2023-06-22T23:02:36;26.73;;;20.08;;
22687;SDS011;11511;51.514;7.080;2023-06-22T23:05:05;30.75;;;21.02;;
22687;SDS011;11511;51.514;7.080;2023-06-22T23:07:33;30.75;;;19.35;;
22687;SDS011;11511;51.514;7.080;2023-06-22T23:10:00;30.13;;;20.17;;
22687;SDS011;11511;51.514;7.080;2023-06-22T23:12:26;24.92;;;17.02;;
22687;SDS011;11511;51.514;7.080;2023-06-22T23:14:53;28.40;;;18.75;;
22687;SDS011;11511;51.514;7.080;2023-06-22T23:17:22;28.92;;;17.50;;
22687;SDS011;11511;51.514;7.080;2023-06-22T23:19:49;25.60;;;17.00;;
22687;SDS011;11511;51.514;7.080;2023-06-22T23:22:17;20.63;;;15.77;;
22687;SDS011;11511;51.514;7.080;2023-06-22T23:24:44;27.98;;;16.27;;
22687;SDS011;11511;51.514;7.080;2023-06-22T23:27:12;28.65;;;16.77;;
22687;SDS011;11511;51.514;7.080;2023-06-22T23:29:41;22.20;;;15.38;;
22687;SDS011;11511;51.514;7.080;2023-06-22T23:32:09;24.73;;;16.33;;
22687;SDS011;11511;51.514;7.080;2023-06-22T23:34:36;28.15;;;15.30;;
22687;SDS011;11511;51.514;7.080;2023-06-22T23:37:02;26.40;;;15.77;;
22687;SDS011;11511;51.514;7.080;2023-06-22T23:39:28;25.35;;;16.30;;
22687;SDS011;11511;51.514;7.080;2023-06-22T23:41:55;27.75;;;16.50;;
22687;SDS011;11511;51.514;7.080;2023-06-22T23:44:22;26.60;;;17.70;;
22687;SDS011;11511;51.514;7.080;2023-06-22T23:46:50;29.75;;;19.52;;
22687;SDS011;11511;51.514;7.080;2023-06-22T23:49:16;27.73;;;18.75;;
22687;SDS011;11511;51.514;7.080;2023-06-22T23:51:42;28.73;;;19.25;;
22687;SDS011;11511;51.514;7.080;2023-06-22T23:54:08;23.63;;;15.50;;
22687;SDS011;11511;51.514;7.080;2023-06-22T23:56:42;23.42;;;17.17;;
22687;SDS011;11511;51.514;7.080;2023-06-22T23:59:11;24.52;;;17.40;;
